createdAt,value
2022-08-26T00:03:46.447Z,23.19
2022-08-26T00:08:50.890Z,23.12
2022-08-26T00:13:53.878Z,23.06
2022-08-26T00:18:57.337Z,22.79
2022-08-26T00:24:02.525Z,22.77
2022-08-26T00:29:05.699Z,22.82
2022-08-26T00:34:09.508Z,22.75
2022-08-26T00:39:14.338Z,22.62
2022-08-26T00:44:17.745Z,22.63
2022-08-26T00:49:31.729Z,22.59
2022-08-26T00:54:40.348Z,22.49
2022-08-26T00:59:46.571Z,22.42
2022-08-26T01:04:56.044Z,22.48
2022-08-26T01:10:01.650Z,22.41
2022-08-26T01:15:05.447Z,22.35
2022-08-26T01:20:14.220Z,22.28
2022-08-26T01:25:19.566Z,22.21
2022-08-26T01:30:22.639Z,22.18
2022-08-26T01:35:25.714Z,22.18
2022-08-26T01:40:33.075Z,22.18
2022-08-26T01:45:37.482Z,22.23
2022-08-26T01:50:40.551Z,22.26
2022-08-26T01:55:47.511Z,22.22
2022-08-26T02:00:52.415Z,22.22
2022-08-26T02:05:56.561Z,22.08
2022-08-26T02:11:00.924Z,22.10
2022-08-26T02:16:04.650Z,22.06
2022-08-26T02:21:11.124Z,22.00
2022-08-26T02:26:19.190Z,22.00
2022-08-26T02:31:22.300Z,22.02
2022-08-26T02:36:26.445Z,21.95
2022-08-26T02:41:33.565Z,21.93
2022-08-26T02:46:38.066Z,21.95
2022-08-26T02:51:43.302Z,21.91
2022-08-26T02:56:47.697Z,21.89
2022-08-26T03:01:51.138Z,21.86
2022-08-26T03:06:55.391Z,21.79
2022-08-26T03:11:59.895Z,21.78
2022-08-26T03:17:02.862Z,21.72
2022-08-26T03:22:07.290Z,21.73
2022-08-26T03:27:12.217Z,21.66
2022-08-26T03:32:16.892Z,21.64
2022-08-26T03:37:21.749Z,21.60
2022-08-26T03:42:26.138Z,21.61
2022-08-26T03:47:29.160Z,21.51
2022-08-26T03:52:32.563Z,21.58
2022-08-26T03:57:37.254Z,21.56
2022-08-26T04:02:40.287Z,21.48
2022-08-26T04:07:43.739Z,21.56
2022-08-26T04:12:48.540Z,21.59
2022-08-26T04:17:51.612Z,21.55
2022-08-26T04:22:54.811Z,21.54
2022-08-26T04:27:59.161Z,21.62
2022-08-26T04:33:04.636Z,21.68
2022-08-26T04:38:16.297Z,21.66
2022-08-26T04:43:20.611Z,21.70
2022-08-26T04:48:23.687Z,21.81
2022-08-26T04:53:27.298Z,21.74
2022-08-26T04:58:31.741Z,21.79
2022-08-26T05:03:34.728Z,21.86
2022-08-26T05:08:37.714Z,21.93
2022-08-26T05:13:42.438Z,21.96
2022-08-26T05:18:45.774Z,22.07
2022-08-26T05:23:51.375Z,22.15
2022-08-26T05:28:56.592Z,22.23
2022-08-26T05:34:00.212Z,22.34
2022-08-26T05:39:07.470Z,22.42
2022-08-26T05:44:13.049Z,22.51
2022-08-26T05:49:17.060Z,22.62
2022-08-26T05:54:21.858Z,22.75
2022-08-26T05:59:27.108Z,22.87
2022-08-26T06:04:31.411Z,22.99
2022-08-26T06:09:37.484Z,23.07
2022-08-26T06:14:43.095Z,23.15
2022-08-26T06:19:47.543Z,23.23
2022-08-26T06:25:08.079Z,23.31
2022-08-26T06:30:14.630Z,23.40
2022-08-26T06:35:18.252Z,23.50
2022-08-26T06:40:23.714Z,23.55
2022-08-26T06:45:28.143Z,23.60
2022-08-26T06:50:31.655Z,23.65
2022-08-26T06:55:36.440Z,23.68
2022-08-26T07:00:41.593Z,23.73
2022-08-26T07:05:50.292Z,23.79
2022-08-26T07:10:56.606Z,23.85
2022-08-26T07:16:03.564Z,23.90
2022-08-26T07:21:10.159Z,23.97
2022-08-26T07:26:16.319Z,23.99
2022-08-26T07:31:21.422Z,24.06
2022-08-26T07:36:25.174Z,24.13
2022-08-26T07:46:37.349Z,24.30
2022-08-26T07:51:40.924Z,24.38
2022-08-26T07:56:44.641Z,24.45
2022-08-26T08:01:48.986Z,24.49
2022-08-26T08:06:51.981Z,24.56
2022-08-26T08:11:55.174Z,24.61
2022-08-26T08:16:59.594Z,24.76
2022-08-26T08:22:05.116Z,24.80
2022-08-26T08:27:23.697Z,24.86
2022-08-26T08:32:29.662Z,24.94
2022-08-26T08:37:32.670Z,25.09
2022-08-26T08:42:39.009Z,25.24
2022-08-26T08:47:45.874Z,25.35
2022-08-26T08:52:52.242Z,25.56
2022-08-26T08:58:02.215Z,25.82
2022-08-26T09:03:11.303Z,26.10
2022-08-26T09:08:17.378Z,26.32
2022-08-26T09:13:25.162Z,26.65
2022-08-26T09:18:37.611Z,26.89
2022-08-26T09:23:41.986Z,27.05
2022-08-26T09:28:47.987Z,27.11
2022-08-26T09:34:03.378Z,27.28
2022-08-26T09:39:11.947Z,27.56
2022-08-26T09:44:16.651Z,27.79
2022-08-26T09:49:30.669Z,28.15
2022-08-26T09:54:36.336Z,28.66
2022-08-26T09:59:39.334Z,28.82
2022-08-26T10:04:50.488Z,28.87
2022-08-26T10:09:53.617Z,29.00
2022-08-26T10:15:00.261Z,28.97
2022-08-26T10:20:22.771Z,29.50
2022-08-26T10:25:29.154Z,30.24
2022-08-26T10:30:35.617Z,30.70
2022-08-26T10:35:44.103Z,30.81
2022-08-26T10:40:52.941Z,30.96
2022-08-26T10:46:00.651Z,31.22
2022-08-26T10:51:05.926Z,31.42
2022-08-26T10:56:19.112Z,31.67
2022-08-26T11:01:43.994Z,31.52
2022-08-26T11:06:48.587Z,31.40
2022-08-26T11:11:51.919Z,31.13
2022-08-26T11:16:56.985Z,31.26
2022-08-26T11:22:06.389Z,31.29
2022-08-26T11:27:32.968Z,31.62
2022-08-26T11:32:49.787Z,31.85
2022-08-26T11:37:56.763Z,32.12
2022-08-26T11:43:01.950Z,32.42
2022-08-26T11:48:15.774Z,32.73
2022-08-26T11:53:20.800Z,33.13
2022-08-26T11:58:27.561Z,33.39
2022-08-26T12:03:36.262Z,33.70
2022-08-26T12:08:43.776Z,34.18
2022-08-26T12:13:54.345Z,34.36
2022-08-26T12:18:57.814Z,34.72
2022-08-26T12:24:02.608Z,34.91
2022-08-26T12:29:19.932Z,35.08
2022-08-26T12:34:26.249Z,35.21
2022-08-26T12:39:33.281Z,35.32
2022-08-26T12:44:53.854Z,35.40
2022-08-26T12:50:02.197Z,36.15
2022-08-26T12:55:08.408Z,37.20
2022-08-26T13:00:28.368Z,38.52
2022-08-26T13:05:35.171Z,38.73
2022-08-26T13:10:40.651Z,38.13
2022-08-26T13:15:44.807Z,37.81
2022-08-26T13:20:47.854Z,37.30
2022-08-26T13:25:52.749Z,36.95
2022-08-26T13:30:55.766Z,36.68
2022-08-26T13:35:58.878Z,35.59
2022-08-26T13:41:03.648Z,34.58
2022-08-26T13:46:06.835Z,33.63
2022-08-26T13:51:09.945Z,33.19
2022-08-26T13:56:14.795Z,33.22
2022-08-26T14:01:18.582Z,33.12
2022-08-26T14:06:21.983Z,33.34
2022-08-26T14:11:27.075Z,33.48
2022-08-26T14:16:33.388Z,33.48
2022-08-26T14:21:39.459Z,32.95
2022-08-26T14:26:43.859Z,32.32
2022-08-26T14:31:46.942Z,31.89
2022-08-26T14:36:49.973Z,31.54
2022-08-26T14:41:57.237Z,31.29
2022-08-26T14:47:02.123Z,31.14
2022-08-26T14:52:05.211Z,30.88
2022-08-26T14:57:10.438Z,30.68
2022-08-26T15:02:32.368Z,30.54
2022-08-26T15:07:36.706Z,30.68
2022-08-26T15:12:41.722Z,30.70
2022-08-26T15:17:44.792Z,30.63
2022-08-26T15:22:48.492Z,30.46
2022-08-26T15:27:53.072Z,30.23
2022-08-26T15:32:56.190Z,30.08
2022-08-26T15:37:59.214Z,29.96
2022-08-26T15:43:18.457Z,29.90
2022-08-26T15:48:27.236Z,29.85
2022-08-26T15:53:31.510Z,29.76
2022-08-26T15:58:36.235Z,29.70
2022-08-26T16:03:39.324Z,29.63
2022-08-26T16:08:42.372Z,29.56
2022-08-26T16:13:47.006Z,29.47
2022-08-26T16:18:50.441Z,29.28
2022-08-26T16:23:53.452Z,28.87
2022-08-26T16:28:57.776Z,28.71
2022-08-26T16:34:00.751Z,28.52
2022-08-26T16:39:04.554Z,28.45
2022-08-26T16:44:09.157Z,28.35
2022-08-26T16:49:12.739Z,28.28
2022-08-26T16:54:15.760Z,28.20
2022-08-26T16:59:20.120Z,28.10
2022-08-26T17:04:23.215Z,28.02
2022-08-26T17:09:26.526Z,27.99
2022-08-26T17:14:30.899Z,27.97
2022-08-26T17:19:39.089Z,27.99
2022-08-26T17:24:44.176Z,27.91
2022-08-26T17:29:48.509Z,27.87
2022-08-26T17:34:51.505Z,27.88
2022-08-26T17:39:54.476Z,27.86
2022-08-26T17:44:58.855Z,27.79
2022-08-26T17:50:02.362Z,27.69
2022-08-26T17:55:05.801Z,27.59
2022-08-26T18:00:12.490Z,27.50
2022-08-26T18:05:17.545Z,27.41
2022-08-26T18:10:21.807Z,27.34
2022-08-26T18:15:26.230Z,27.25
2022-08-26T18:20:29.296Z,27.15
2022-08-26T18:25:34.927Z,27.06
2022-08-26T18:30:39.379Z,26.98
2022-08-26T18:35:43.314Z,26.92
2022-08-26T18:40:46.369Z,26.88
2022-08-26T18:45:50.735Z,26.81
2022-08-26T18:50:55.241Z,26.75
2022-08-26T18:55:58.443Z,26.72
2022-08-26T19:01:02.947Z,26.70
2022-08-26T19:06:06.373Z,26.66
2022-08-26T19:11:09.638Z,26.64
2022-08-26T19:16:17.612Z,26.59
2022-08-26T19:21:21.269Z,26.56
2022-08-26T19:26:25.069Z,26.47
2022-08-26T19:31:29.436Z,26.37
2022-08-26T19:36:32.498Z,26.30
2022-08-26T19:41:37.616Z,26.28
2022-08-26T19:46:42.330Z,26.27
2022-08-26T19:51:45.270Z,26.15
2022-08-26T19:56:49.829Z,26.09
2022-08-26T20:02:01.382Z,26.06
2022-08-26T20:07:05.656Z,26.00
2022-08-26T20:12:08.923Z,25.91
2022-08-26T20:17:13.292Z,25.84
2022-08-26T20:22:16.459Z,25.76
2022-08-26T20:27:20.225Z,25.69
2022-08-26T20:32:25.863Z,25.69
2022-08-26T20:37:29.391Z,25.65
2022-08-26T20:42:32.718Z,25.62
2022-08-26T20:47:37.573Z,25.55
2022-08-26T20:52:40.641Z,25.49
2022-08-26T20:57:43.769Z,25.42
2022-08-26T21:02:48.165Z,25.36
2022-08-26T21:07:51.640Z,25.26
2022-08-26T21:12:57.531Z,25.20
2022-08-26T21:18:01.909Z,25.14
2022-08-26T21:23:04.996Z,25.09
2022-08-26T21:28:08.125Z,25.03
2022-08-26T21:33:12.600Z,25.01
2022-08-26T21:38:15.612Z,24.96
2022-08-26T21:43:22.690Z,24.94
2022-08-26T21:48:40.896Z,24.95
2022-08-26T21:53:44.107Z,24.88
2022-08-26T21:58:47.254Z,24.77
2022-08-26T22:03:52.527Z,24.75
2022-08-26T22:08:55.994Z,24.75
2022-08-26T22:13:59.036Z,24.70
2022-08-26T22:19:03.375Z,24.63
2022-08-26T22:24:08.628Z,24.55
2022-08-26T22:29:11.781Z,24.50
2022-08-26T22:34:17.488Z,24.51
2022-08-26T22:39:22.025Z,24.42
2022-08-26T22:44:25.069Z,24.38
2022-08-26T22:49:29.708Z,24.36
2022-08-26T22:54:32.941Z,24.31
2022-08-26T22:59:36.034Z,24.21
2022-08-26T23:04:40.509Z,24.21
2022-08-26T23:09:43.554Z,24.22
2022-08-26T23:14:48.668Z,24.23
2022-08-26T23:19:53.214Z,24.23
2022-08-26T23:24:56.552Z,24.21
2022-08-26T23:29:59.613Z,24.16
2022-08-26T23:35:04.258Z,24.08
2022-08-26T23:40:10.377Z,24.03
2022-08-26T23:45:14.648Z,24.00
2022-08-26T23:50:19.597Z,23.91
2022-08-26T23:55:23.566Z,23.91
